WetterOnline ( http://www.wetteronline.de )

Wetter aktuell Leipzig

Aktuelles Wetter: Leipzig-Holzhausen (138m)

6-stündlich | Neueste Meldungen
Ortszeit Temperatur Wetter
Mi, 20.06. 20:00 28.3° C leicht bewölkt
Mi, 20.06. 14:00 26.5° C bewölkt
Mi, 20.06. 8:00 19.2° C bedeckt
Mi, 20.06. 2:00 15.9° C bedeckt
Di, 19.06. 20:00 23.0° C bedeckt
Di, 19.06. 14:00 24.6° C bedeckt
Di, 19.06. 8:00 18.5° C bewölkt
Di, 19.06. 2:00 16.4° C wolkenlos
Ortszeit Temperatur Wetter
Mi, 20.06. 20:30 26.9° C fast wolkenlos
Mi, 20.06. 20:10 27.2° C wolkenlos
Mi, 20.06. 20:00 28.3° C leicht bewölkt
Mi, 20.06. 19:50 28.3° C leicht bewölkt
Mi, 20.06. 19:40 28.3° C leicht bewölkt
Mi, 20.06. 19:30 29.5° C fast wolkenlos
Mi, 20.06. 19:00 28.5° C wolkenlos
Mi, 20.06. 18:30 29.5° C wolkenlos
Mi, 20.06. 18:00 29.3° C wolkenlos
Mi, 20.06. 17:30 29.5° C wolkig
Ortszeit Relative Feuchte Sichtweite
Mi, 20.06. 20:00 44% 50 km
Mi, 20.06. 14:00 47% 45 km
Mi, 20.06. 8:00 80% 15 km
Mi, 20.06. 2:00 94% 30 km
Di, 19.06. 20:00 58% 55 km
Di, 19.06. 14:00 46% 50 km
Di, 19.06. 8:00 74% 35 km
Di, 19.06. 2:00 78% 40 km
Ortszeit Relative Feuchte Sichtweite
Mi, 20.06. 20:30 52% 40 km
Mi, 20.06. 20:10 50% -
Mi, 20.06. 20:00 44% 50 km
Mi, 20.06. 19:50 44% -
Mi, 20.06. 19:40 44% -
Mi, 20.06. 19:30 41% 60 km
Mi, 20.06. 19:00 44% 40 km
Mi, 20.06. 18:30 40% 45 km
Mi, 20.06. 18:00 41% 30 km
Mi, 20.06. 17:30 40% 30 km
Ortszeit Niederschlagsmenge Niederschlagsart
Mi, 20.06. 20:00 0.0 l/m2 in 12 Std. -
Mi, 20.06. 14:00 0.0 l/m2 in 6 Std. -
Mi, 20.06. 8:00 0.0 l/m2 in 12 Std. -
Mi, 20.06. 2:00 0.0 l/m2 in 6 Std. -
Di, 19.06. 20:00 0.0 l/m2 in 12 Std. -
Di, 19.06. 14:00 0.0 l/m2 in 6 Std. -
Di, 19.06. 8:00 0.0 l/m2 in 12 Std. -
Di, 19.06. 2:00 0.0 l/m2 in 6 Std. -
Ortszeit Niederschlagsmenge Niederschlagsart
Mi, 20.06. 20:30 0.0 l/m2 in 1 Std. -
Mi, 20.06. 20:10 keine Meldung -
Mi, 20.06. 20:00 0.0 l/m2 in 1 Std. -
Mi, 20.06. 19:50 keine Meldung -
Mi, 20.06. 19:40 keine Meldung -
Mi, 20.06. 19:30 0.0 l/m2 in 1 Std. -
Mi, 20.06. 19:00 0.0 l/m2 in 1 Std. -
Mi, 20.06. 18:30 0.0 l/m2 in 1 Std. -
Mi, 20.06. 18:00 0.0 l/m2 in 1 Std. -
Mi, 20.06. 17:30 0.0 l/m2 in 1 Std. -
Ortszeit Stärke Spitze Richtung
km/h Bft. km/h Grad Sektor
Mi, 20.06. 20:00 6 1 28 270° W
Mi, 20.06. 14:00 6 1 22 290° W
Mi, 20.06. 8:00 4 1 7 160° S
Mi, 20.06. 2:00 0 0 22 - -
Di, 19.06. 20:00 7 2 30 290° W
Di, 19.06. 14:00 7 2 29 260° W
Di, 19.06. 8:00 7 2 19 250° W
Di, 19.06. 2:00 6 1 24 220° SW
Ortszeit Stärke Spitze Richtung
km/h Bft. km/h Grad Sektor
Mi, 20.06. 20:30 2 1 7 270° W
Mi, 20.06. 20:10 4 1 - 260° W
Mi, 20.06. 20:00 6 1 15 270° W
Mi, 20.06. 19:50 6 1 - 270° W
Mi, 20.06. 19:40 6 1 - 260° W
Mi, 20.06. 19:30 7 2 14 230° SW
Mi, 20.06. 19:00 7 2 22 210° SW
Mi, 20.06. 18:30 7 2 22 240° SW
Mi, 20.06. 18:00 7 2 25 210° SW
Mi, 20.06. 17:30 9 2 24 200° S
Ortszeit Untergrenze Bedeckung Gattung
total tief tief mittel hoch
Mi, 20.06. 20:00 2100 m 3/8 3/8 - - -
Mi, 20.06. 14:00 1500 m 7/8 7/8 - - -
Mi, 20.06. 8:00 1500 m 8/8 8/8 - - -
Mi, 20.06. 2:00 1050 m 8/8 8/8 - - -
Di, 19.06. 20:00 2100 m 8/8 8/8 - - -
Di, 19.06. 14:00 1500 m 8/8 8/8 - - -
Di, 19.06. 8:00 1140 m 7/8 7/8 - - -
Di, 19.06. 2:00 - 0/8 0/8 - - -
Ortszeit Bedeckungsgrad in Achtel und Wolkenuntergrenze
Mi, 20.06. 20:30 1(2100m)
Mi, 20.06. 20:10 keine Wolken
Mi, 20.06. 20:00 3(2100m)
Mi, 20.06. 19:50 3(2100m)
Mi, 20.06. 19:40 4(2100m)
Mi, 20.06. 19:30 4(2100m)
Mi, 20.06. 19:00 keine Wolken
Mi, 20.06. 18:30 keine Wolken
Mi, 20.06. 18:00 keine Wolken
Mi, 20.06. 17:30 2(2100m) 9 9
Ortszeit Luftdruck NN (hPa) Tendenz (hPa in 3 Std.)
Mi, 20.06. 20:00 1016 - 1,9
Mi, 20.06. 14:00 1020 - 2,0
Mi, 20.06. 8:00 1023 - 0,2
Mi, 20.06. 2:00 1024 + 0,7
Di, 19.06. 20:00 1022 + 0,2
Di, 19.06. 14:00 1022 - 0,2
Di, 19.06. 8:00 1022 + 1,0
Di, 19.06. 2:00 1021 - 0,2
Ortszeit Luftdruck NN (hPa) Tendenz (hPa in 3 Std.)
Mi, 20.06. 20:30 1016 - 1,7
Mi, 20.06. 20:10 1016 keine Meldung
Mi, 20.06. 20:00 1016 - 1,9
Mi, 20.06. 19:50 1016 keine Meldung
Mi, 20.06. 19:40 1016 keine Meldung
Mi, 20.06. 19:30 1016 - 1,9
Mi, 20.06. 19:00 1016 - 1,9
Mi, 20.06. 18:30 1017 - 2,1
Mi, 20.06. 18:00 1017 - 2,2
Mi, 20.06. 17:30 1017 - 2,2
Ortszeit Schneehöhe (cm)
Mi, 20.06. 20:00 -
Mi, 20.06. 14:00 -
Mi, 20.06. 8:00 -
Mi, 20.06. 2:00 -
Di, 19.06. 20:00 -
Di, 19.06. 14:00 -
Di, 19.06. 8:00 -
Di, 19.06. 2:00 -
Ortszeit Schneehöhe (cm)
Mi, 20.06. 20:30 -
Mi, 20.06. 20:10 -
Mi, 20.06. 20:00 -
Mi, 20.06. 19:50 -
Mi, 20.06. 19:40 -
Mi, 20.06. 19:30 -
Mi, 20.06. 19:00 -
Mi, 20.06. 18:30 -
Mi, 20.06. 18:00 -
Mi, 20.06. 17:30 -
Link zu dieser Seite / Seite empfehlen

Das Wetter in ...